Time;durP1;ratioP1;P1;durP2;ratioP2;P2;SDS_P1;SDS_P2;PMS_P1;PMS_P2;Temp;Humidity;BMP_temperature;BMP_pressure;BME280_temperature;BME280_humidity;BME280_pressure;Samples;Min_cycle;Max_cycle;Signal;HPM_P1;HPM_P2
2023/04/27 00:01:33;;;;;;;;;;;7.70;99.20;;;;;;4942596;29;19915;-67
2023/04/27 00:03:59;;;;;;;;;;;7.70;98.90;;;;;;4931482;29;19953;-67
2023/04/27 00:06:26;;;;;;;;;;;7.70;98.90;;;;;;4941577;29;19954;-67
2023/04/27 00:08:51;;;;;;;;;;;7.60;99.20;;;;;;4922864;29;19960;-67
2023/04/27 00:11:17;;;;;;;;;;;7.60;99.50;;;;;;4938984;29;20300;-67
2023/04/27 00:13:43;;;;;;;;;;;7.50;99.90;;;;;;4919333;29;20013;-67
2023/04/27 00:16:08;;;;;;;;;;;7.60;99.70;;;;;;4927705;29;19937;-67
2023/04/27 00:18:34;;;;;;;;;;;7.60;99.50;;;;;;4952292;29;19929;-67
2023/04/27 00:21:00;;;;;;;;;;;7.60;99.70;;;;;;4924987;29;19914;-67
2023/04/27 00:23:26;;;;;;;;;;;7.60;99.60;;;;;;4918153;29;19945;-67
2023/04/27 00:25:52;;;;;;;;;;;7.60;99.80;;;;;;4934606;29;19934;-67
2023/04/27 00:28:18;;;;;;;;;;;7.50;99.60;;;;;;4934407;29;19919;-67
2023/04/27 00:30:43;;;;;;;;;;;7.60;99.70;;;;;;4932506;29;19961;-67
2023/04/27 00:33:10;;;;;;;;;;;7.50;99.80;;;;;;4944995;29;19914;-67
2023/04/27 00:35:35;;;;;;;;;;;7.50;99.90;;;;;;4930442;29;20306;-67
2023/04/27 00:38:01;;;;;;;;;;;7.50;99.90;;;;;;4933555;29;20037;-67
2023/04/27 00:40:27;;;;;;;;;;;7.50;99.90;;;;;;4936109;29;19918;-67
2023/04/27 00:42:52;;;;;;;;;;;7.50;99.90;;;;;;4918606;29;19915;-67
2023/04/27 00:45:18;;;;;;;;;;;7.40;99.90;;;;;;4917502;29;20009;-67
2023/04/27 00:47:44;;;;;;;;;;;7.50;99.90;;;;;;4935055;29;19911;-67
2023/04/27 00:50:10;;;;;;;;;;;7.60;99.90;;;;;;4931721;29;19999;-67
2023/04/27 00:52:36;;;;;;;;;;;7.50;99.90;;;;;;4936763;29;19921;-67
2023/04/27 00:55:06;;;;;;;;;;;7.50;99.90;;;;;;4931330;29;19923;-67
2023/04/27 00:57:32;;;;;;;;;;;7.40;99.90;;;;;;4913516;29;20351;-67
2023/04/27 01:00:03;;;;;;;;;;;7.40;99.90;;;;;;4913408;29;19958;-67
2023/04/27 01:02:29;;;;;;;;;;;7.50;99.90;;;;;;4913441;29;20381;-67
2023/04/27 01:04:55;;;;;;;;;;;7.50;99.90;;;;;;4911816;29;19919;-67
2023/04/27 01:07:23;;;;;;;;;;;7.40;99.90;;;;;;4930879;29;19942;-67
2023/04/27 01:09:49;;;;;;;;;;;7.40;99.90;;;;;;4910668;29;19919;-67
2023/04/27 01:12:15;;;;;;;;;;;7.40;99.90;;;;;;4915596;29;19926;-67
2023/04/27 01:14:41;;;;;;;;;;;7.40;99.90;;;;;;4925028;29;19915;-67
2023/04/27 01:17:07;;;;;;;;;;;7.30;99.90;;;;;;4916852;29;20340;-67
2023/04/27 01:19:33;;;;;;;;;;;7.30;99.90;;;;;;4928029;29;20025;-67
2023/04/27 01:21:59;;;;;;;;;;;7.30;99.90;;;;;;4913752;29;19915;-67
2023/04/27 01:24:24;;;;;;;;;;;7.30;99.90;;;;;;4898634;29;19958;-67
2023/04/27 01:26:52;;;;;;;;;;;7.20;99.90;;;;;;4914695;29;20244;-67
2023/04/27 01:29:18;;;;;;;;;;;7.30;99.90;;;;;;4930860;29;19929;-67
2023/04/27 01:31:44;;;;;;;;;;;7.30;99.90;;;;;;4928254;29;19915;-67
2023/04/27 01:34:10;;;;;;;;;;;7.30;99.90;;;;;;4922169;29;19997;-67
2023/04/27 01:36:36;;;;;;;;;;;7.20;99.90;;;;;;4914751;29;19997;-67
2023/04/27 01:39:03;;;;;;;;;;;7.10;99.90;;;;;;4913393;29;20038;-67
2023/04/27 01:41:28;;;;;;;;;;;7.10;99.90;;;;;;4930272;29;19915;-67
2023/04/27 01:43:54;;;;;;;;;;;7.10;99.90;;;;;;4913637;29;20265;-67
2023/04/27 01:46:20;;;;;;;;;;;7.00;99.90;;;;;;4909308;29;19915;-67
2023/04/27 01:48:45;;;;;;;;;;;7.10;99.90;;;;;;4917505;29;19915;-67
2023/04/27 01:51:11;;;;;;;;;;;7.10;99.90;;;;;;4907241;29;20276;-67
2023/04/27 01:53:37;;;;;;;;;;;7.10;99.90;;;;;;4917046;29;19953;-67
2023/04/27 01:56:02;;;;;;;;;;;7.10;99.90;;;;;;4944095;29;20013;-67
2023/04/27 01:58:28;;;;;;;;;;;7.00;99.90;;;;;;4932949;29;19918;-67
2023/04/27 02:00:54;;;;;;;;;;;7.10;99.90;;;;;;4928911;29;19914;-67
2023/04/27 02:03:20;;;;;;;;;;;7.00;99.90;;;;;;4933423;29;19938;-67
2023/04/27 02:05:46;;;;;;;;;;;7.00;99.90;;;;;;4934398;29;19914;-67
2023/04/27 02:08:12;;;;;;;;;;;6.90;99.90;;;;;;4935827;29;20313;-67
2023/04/27 02:10:38;;;;;;;;;;;6.90;99.90;;;;;;4937215;29;19922;-67
2023/04/27 02:13:03;;;;;;;;;;;7.00;99.90;;;;;;4933677;29;19915;-67
2023/04/27 02:15:29;;;;;;;;;;;7.00;99.90;;;;;;4937266;29;19910;-67
2023/04/27 02:17:56;;;;;;;;;;;6.90;99.90;;;;;;4919331;29;19983;-67
2023/04/27 02:20:21;;;;;;;;;;;7.00;99.90;;;;;;4938145;29;19919;-67
2023/04/27 02:22:47;;;;;;;;;;;7.00;99.90;;;;;;4936775;29;19919;-67
2023/04/27 02:25:13;;;;;;;;;;;7.00;99.90;;;;;;4952325;29;19915;-67
2023/04/27 02:27:39;;;;;;;;;;;6.90;99.90;;;;;;4933077;29;20537;-67
2023/04/27 02:30:06;;;;;;;;;;;6.90;99.90;;;;;;4952649;29;19922;-67
2023/04/27 02:32:32;;;;;;;;;;;6.90;99.90;;;;;;4937411;29;19968;-67
2023/04/27 02:34:57;;;;;;;;;;;6.80;99.90;;;;;;4936255;29;20625;-67
2023/04/27 02:37:23;;;;;;;;;;;6.80;99.90;;;;;;4937475;29;19918;-67
2023/04/27 02:39:49;;;;;;;;;;;6.90;99.90;;;;;;4936254;29;20005;-67
2023/04/27 02:42:15;;;;;;;;;;;6.90;99.90;;;;;;4934725;29;20606;-67
2023/04/27 02:44:41;;;;;;;;;;;7.00;99.90;;;;;;4935558;29;19958;-67
2023/04/27 02:47:07;;;;;;;;;;;6.80;99.90;;;;;;4936358;29;20052;-67
2023/04/27 02:49:32;;;;;;;;;;;6.80;99.90;;;;;;4936598;29;19910;-67
2023/04/27 02:51:58;;;;;;;;;;;6.90;99.90;;;;;;4935480;29;20263;-67
2023/04/27 02:54:24;;;;;;;;;;;6.90;99.90;;;;;;4952400;29;19915;-67
2023/04/27 02:56:50;;;;;;;;;;;6.80;99.90;;;;;;4919715;29;20336;-67
2023/04/27 02:59:16;;;;;;;;;;;6.80;99.90;;;;;;4912324;29;20384;-67
2023/04/27 03:01:41;;;;;;;;;;;6.80;99.90;;;;;;4916996;29;19910;-67
2023/04/27 03:04:09;;;;;;;;;;;6.80;99.90;;;;;;4908073;29;19978;-67
2023/04/27 03:06:35;;;;;;;;;;;6.80;99.90;;;;;;4908825;29;20003;-67
2023/04/27 03:09:00;;;;;;;;;;;6.70;99.90;;;;;;4918769;29;19965;-67
2023/04/27 03:11:26;;;;;;;;;;;6.70;99.90;;;;;;4916693;29;19981;-67
2023/04/27 03:13:52;;;;;;;;;;;6.70;99.90;;;;;;4918085;29;19919;-67
2023/04/27 03:16:17;;;;;;;;;;;6.70;99.90;;;;;;4914560;29;19929;-67
2023/04/27 03:18:43;;;;;;;;;;;6.70;99.90;;;;;;4902021;29;19925;-67
2023/04/27 03:21:09;;;;;;;;;;;6.70;99.90;;;;;;4922716;29;20009;-67
2023/04/27 03:23:35;;;;;;;;;;;6.60;99.90;;;;;;4912687;29;19915;-67
2023/04/27 03:26:10;;;;;;;;;;;6.70;99.90;;;;;;4928726;29;19977;-67
2023/04/27 03:28:36;;;;;;;;;;;6.60;99.90;;;;;;4918026;29;19926;-67
2023/04/27 03:31:05;;;;;;;;;;;6.70;99.90;;;;;;4917568;29;19915;-67
2023/04/27 03:33:31;;;;;;;;;;;6.60;99.90;;;;;;4912965;29;19958;-67
2023/04/27 03:35:57;;;;;;;;;;;6.60;99.90;;;;;;4935100;29;19915;-67
2023/04/27 03:38:23;;;;;;;;;;;6.50;99.90;;;;;;4910763;29;19934;-67
2023/04/27 03:40:49;;;;;;;;;;;6.60;99.90;;;;;;4918280;29;20319;-68
2023/04/27 03:43:15;;;;;;;;;;;6.50;99.90;;;;;;4919072;29;19921;-67
2023/04/27 03:45:40;;;;;;;;;;;6.50;99.90;;;;;;4919212;29;19915;-67
2023/04/27 03:48:06;;;;;;;;;;;6.50;99.90;;;;;;4919354;29;19926;-67
2023/04/27 03:50:32;;;;;;;;;;;6.50;99.90;;;;;;4912944;29;19919;-67
2023/04/27 03:52:57;;;;;;;;;;;6.50;99.90;;;;;;4915305;29;19919;-67
2023/04/27 03:55:23;;;;;;;;;;;6.40;99.90;;;;;;4923198;29;19929;-67
2023/04/27 03:57:50;;;;;;;;;;;6.40;99.90;;;;;;4934693;29;19915;-67
2023/04/27 04:00:17;;;;;;;;;;;6.40;99.90;;;;;;4934351;29;19938;-67
2023/04/27 04:02:43;;;;;;;;;;;6.40;99.90;;;;;;4949400;29;20298;-67
2023/04/27 04:05:08;;;;;;;;;;;6.30;99.90;;;;;;4950888;29;19910;-67
2023/04/27 04:07:34;;;;;;;;;;;6.30;99.90;;;;;;4934577;29;20230;-67
2023/04/27 04:10:00;;;;;;;;;;;6.30;99.90;;;;;;4949012;29;19915;-67
2023/04/27 04:12:26;;;;;;;;;;;6.30;99.90;;;;;;4935048;29;20018;-67
2023/04/27 04:14:51;;;;;;;;;;;6.20;99.90;;;;;;4934739;29;20005;-67
2023/04/27 04:17:17;;;;;;;;;;;6.20;99.90;;;;;;4935854;29;19914;-67
2023/04/27 04:19:43;;;;;;;;;;;6.10;99.90;;;;;;4930503;29;19981;-67
2023/04/27 04:22:08;;;;;;;;;;;6.10;99.90;;;;;;4950182;29;19946;-67
2023/04/27 04:24:35;;;;;;;;;;;6.00;99.90;;;;;;4934208;29;20582;-67
2023/04/27 04:27:01;;;;;;;;;;;6.10;99.90;;;;;;4935162;29;20006;-67
2023/04/27 04:29:27;;;;;;;;;;;6.10;99.90;;;;;;4931039;29;20273;-67
2023/04/27 04:31:54;;;;;;;;;;;6.00;99.90;;;;;;4935641;29;19915;-67
2023/04/27 04:34:20;;;;;;;;;;;6.10;99.90;;;;;;4933903;29;19915;-67
2023/04/27 04:36:46;;;;;;;;;;;6.10;99.90;;;;;;4934987;29;20288;-67
2023/04/27 04:39:12;;;;;;;;;;;6.10;99.90;;;;;;4932995;29;20251;-67
2023/04/27 04:41:38;;;;;;;;;;;6.10;99.90;;;;;;4934950;29;19915;-67
2023/04/27 04:44:05;;;;;;;;;;;6.00;99.90;;;;;;4934552;29;20006;-67
2023/04/27 04:46:31;;;;;;;;;;;5.90;99.90;;;;;;4948454;28;20663;-67
2023/04/27 04:48:57;;;;;;;;;;;6.00;99.90;;;;;;4943500;29;20001;-67
2023/04/27 04:51:22;;;;;;;;;;;6.00;99.90;;;;;;4949370;29;20346;-67
2023/04/27 04:53:48;;;;;;;;;;;6.00;99.90;;;;;;4946191;28;20232;-67
2023/04/27 04:56:15;;;;;;;;;;;5.90;99.90;;;;;;4927154;29;20009;-67
2023/04/27 04:58:41;;;;;;;;;;;5.90;99.90;;;;;;4908293;29;19925;-67
2023/04/27 05:01:07;;;;;;;;;;;5.90;99.90;;;;;;4914011;29;19923;-67
2023/04/27 05:03:32;;;;;;;;;;;5.80;99.90;;;;;;4911301;29;19967;-66
2023/04/27 05:05:58;;;;;;;;;;;5.90;99.90;;;;;;4921508;29;19977;-66
2023/04/27 05:08:23;;;;;;;;;;;5.90;99.90;;;;;;4904238;29;19923;-67
2023/04/27 05:10:50;;;;;;;;;;;5.80;99.90;;;;;;4912248;29;19922;-67
2023/04/27 05:13:16;;;;;;;;;;;5.90;99.90;;;;;;4898785;29;19915;-67
2023/04/27 05:15:42;;;;;;;;;;;5.70;99.90;;;;;;4897707;29;20006;-67
2023/04/27 05:18:07;;;;;;;;;;;5.80;99.90;;;;;;4898832;29;20017;-66
2023/04/27 05:20:33;;;;;;;;;;;5.80;99.90;;;;;;4915559;29;20280;-66
2023/04/27 05:22:59;;;;;;;;;;;5.70;99.90;;;;;;4895582;29;19922;-66
2023/04/27 05:25:25;;;;;;;;;;;5.80;99.90;;;;;;4914180;29;20051;-68
2023/04/27 05:27:51;;;;;;;;;;;5.80;99.90;;;;;;4927733;29;20013;-66
2023/04/27 05:30:16;;;;;;;;;;;5.80;99.90;;;;;;4905440;29;19921;-67
2023/04/27 05:32:42;;;;;;;;;;;5.80;99.90;;;;;;4907245;29;19914;-67
2023/04/27 05:35:08;;;;;;;;;;;5.60;99.90;;;;;;4923024;29;19950;-66
2023/04/27 05:37:34;;;;;;;;;;;5.70;99.90;;;;;;4915299;29;19926;-67
2023/04/27 05:40:00;;;;;;;;;;;5.70;99.90;;;;;;4898514;29;19910;-66
2023/04/27 05:42:25;;;;;;;;;;;5.80;99.90;;;;;;4909436;29;19918;-67
2023/04/27 05:44:51;;;;;;;;;;;5.80;99.90;;;;;;4919467;29;19915;-66
2023/04/27 05:47:16;;;;;;;;;;;5.80;99.90;;;;;;4901166;29;19926;-67
2023/04/27 05:49:42;;;;;;;;;;;5.80;99.90;;;;;;4899777;29;19915;-69
2023/04/27 05:52:08;;;;;;;;;;;5.90;99.90;;;;;;4907323;29;19947;-70
2023/04/27 05:54:33;;;;;;;;;;;5.90;99.90;;;;;;4927802;29;20256;-70
2023/04/27 05:56:59;;;;;;;;;;;5.80;99.90;;;;;;4920811;29;19949;-69
2023/04/27 05:59:26;;;;;;;;;;;5.90;99.90;;;;;;4907201;29;19929;-69
2023/04/27 06:01:51;;;;;;;;;;;5.80;99.90;;;;;;4901175;29;19925;-70
2023/04/27 06:04:17;;;;;;;;;;;5.90;99.90;;;;;;4918602;29;19927;-70
2023/04/27 06:06:43;;;;;;;;;;;6.10;99.90;;;;;;4901980;29;20375;-70
2023/04/27 06:09:09;;;;;;;;;;;6.10;99.90;;;;;;4901712;29;19914;-70
2023/04/27 06:11:35;;;;;;;;;;;6.20;99.90;;;;;;4917573;29;19983;-70
2023/04/27 06:14:01;;;;;;;;;;;6.20;99.90;;;;;;4901561;29;19919;-70
2023/04/27 06:16:26;;;;;;;;;;;6.10;99.90;;;;;;4918799;29;19911;-70
2023/04/27 06:18:52;;;;;;;;;;;6.20;99.90;;;;;;4886697;29;19922;-71
2023/04/27 06:21:18;;;;;;;;;;;6.30;99.90;;;;;;4919434;29;19919;-71
2023/04/27 06:23:43;;;;;;;;;;;6.20;99.90;;;;;;4915717;29;19911;-70
2023/04/27 06:26:09;;;;;;;;;;;6.30;99.90;;;;;;4918049;29;19918;-70
2023/04/27 06:28:35;;;;;;;;;;;6.20;99.90;;;;;;4901205;29;19915;-70
2023/04/27 06:31:01;;;;;;;;;;;6.10;99.90;;;;;;4918756;29;19926;-70
2023/04/27 06:33:26;;;;;;;;;;;6.10;99.90;;;;;;4902177;29;19922;-70
2023/04/27 06:35:52;;;;;;;;;;;6.10;99.90;;;;;;4901897;29;20831;-69
2023/04/27 06:38:18;;;;;;;;;;;6.20;99.90;;;;;;4898682;29;19923;-71
2023/04/27 06:40:44;;;;;;;;;;;6.20;99.90;;;;;;4901794;29;19926;-71
2023/04/27 06:43:10;;;;;;;;;;;6.30;99.90;;;;;;4902152;29;19958;-70
2023/04/27 06:45:35;;;;;;;;;;;6.30;99.90;;;;;;4897051;29;20061;-71
2023/04/27 06:48:01;;;;;;;;;;;6.40;99.90;;;;;;4915482;29;20317;-71
2023/04/27 06:50:28;;;;;;;;;;;6.40;99.90;;;;;;4883482;29;20057;-70
2023/04/27 06:52:53;;;;;;;;;;;6.60;99.90;;;;;;4900777;29;19954;-70
2023/04/27 06:55:19;;;;;;;;;;;6.50;99.90;;;;;;4911300;29;19954;-70
2023/04/27 06:57:44;;;;;;;;;;;6.60;99.90;;;;;;4934213;29;20127;-70
2023/04/27 07:00:12;;;;;;;;;;;6.60;99.90;;;;;;4950480;29;19914;-70
2023/04/27 07:02:37;;;;;;;;;;;6.60;99.90;;;;;;4934804;29;19914;-70
2023/04/27 07:05:03;;;;;;;;;;;6.60;99.90;;;;;;4934534;29;20605;-70
2023/04/27 07:07:29;;;;;;;;;;;6.70;99.90;;;;;;4950590;29;19925;-70
2023/04/27 07:09:55;;;;;;;;;;;6.80;99.90;;;;;;4935230;29;19915;-70
2023/04/27 07:12:20;;;;;;;;;;;6.80;99.90;;;;;;4943815;29;19923;-70
2023/04/27 07:14:46;;;;;;;;;;;6.80;99.90;;;;;;4950687;29;19915;-70
2023/04/27 07:17:11;;;;;;;;;;;6.80;99.90;;;;;;4934529;29;19914;-70
2023/04/27 07:19:37;;;;;;;;;;;6.90;99.90;;;;;;4950138;29;19918;-70
2023/04/27 07:22:03;;;;;;;;;;;7.00;99.90;;;;;;4935558;29;19914;-70
2023/04/27 07:24:28;;;;;;;;;;;7.10;99.90;;;;;;4949225;29;19914;-70
2023/04/27 07:26:56;;;;;;;;;;;7.10;99.90;;;;;;4934045;29;19974;-70
2023/04/27 07:29:22;;;;;;;;;;;7.10;99.90;;;;;;4943481;29;19919;-70
2023/04/27 07:31:47;;;;;;;;;;;7.10;99.90;;;;;;4950331;29;20244;-69
2023/04/27 07:34:13;;;;;;;;;;;7.20;99.90;;;;;;4935201;29;20017;-69
2023/04/27 07:36:39;;;;;;;;;;;7.30;99.90;;;;;;4933346;29;20051;-69
2023/04/27 07:39:05;;;;;;;;;;;7.20;99.70;;;;;;4949465;29;19929;-69
2023/04/27 07:41:32;;;;;;;;;;;7.30;99.90;;;;;;4933875;29;19914;-69
2023/04/27 07:43:59;;;;;;;;;;;7.20;99.90;;;;;;4949428;29;20240;-69
2023/04/27 07:46:25;;;;;;;;;;;7.30;99.80;;;;;;4948771;29;19924;-69
2023/04/27 07:48:51;;;;;;;;;;;7.30;99.90;;;;;;4934533;29;19921;-69
2023/04/27 07:51:17;;;;;;;;;;;7.40;99.60;;;;;;4934527;29;19921;-69
2023/04/27 07:53:45;;;;;;;;;;;7.50;97.20;;;;;;4934004;29;19914;-69
2023/04/27 07:56:10;;;;;;;;;;;7.30;97.10;;;;;;4921803;29;19934;-69
2023/04/27 07:58:36;;;;;;;;;;;7.40;97.50;;;;;;4915282;29;19919;-69
2023/04/27 08:01:02;;;;;;;;;;;7.40;98.00;;;;;;4914368;29;19915;-69
2023/04/27 08:03:28;;;;;;;;;;;7.30;98.70;;;;;;4913314;29;19998;-69
2023/04/27 08:05:54;;;;;;;;;;;7.50;98.10;;;;;;4895412;29;19915;-70
2023/04/27 08:08:19;;;;;;;;;;;7.60;98.10;;;;;;4915138;29;19923;-69
2023/04/27 08:10:45;;;;;;;;;;;7.70;98.20;;;;;;4912457;29;20033;-69
2023/04/27 08:13:10;;;;;;;;;;;7.50;98.30;;;;;;4910367;29;19930;-70
2023/04/27 08:15:36;;;;;;;;;;;7.50;98.10;;;;;;4915527;29;19993;-70
2023/04/27 08:18:02;;;;;;;;;;;7.70;98.00;;;;;;4922748;29;19970;-69
2023/04/27 08:20:28;;;;;;;;;;;7.80;96.00;;;;;;4912517;29;20027;-69
2023/04/27 08:22:53;;;;;;;;;;;7.70;96.10;;;;;;4915044;29;19918;-69
2023/04/27 08:25:19;;;;;;;;;;;7.70;96.30;;;;;;4914756;29;20329;-69
2023/04/27 08:27:45;;;;;;;;;;;7.70;96.90;;;;;;4909752;29;19915;-69
2023/04/27 08:30:10;;;;;;;;;;;7.90;97.40;;;;;;4914733;29;20372;-69
2023/04/27 08:32:36;;;;;;;;;;;8.10;97.20;;;;;;4901539;29;19921;-69
2023/04/27 08:35:03;;;;;;;;;;;8.30;95.90;;;;;;4916721;29;20339;-68
2023/04/27 08:37:28;;;;;;;;;;;8.20;95.10;;;;;;4907201;29;19915;-69
2023/04/27 08:39:54;;;;;;;;;;;7.90;95.10;;;;;;4915063;29;19921;-69
2023/04/27 08:42:20;;;;;;;;;;;8.00;94.80;;;;;;4916745;29;19978;-68
2023/04/27 08:44:46;;;;;;;;;;;7.90;93.90;;;;;;4914790;29;20363;-69
2023/04/27 08:47:11;;;;;;;;;;;8.00;93.80;;;;;;4910131;29;19915;-69
2023/04/27 08:49:37;;;;;;;;;;;8.10;93.90;;;;;;4925829;29;19918;-69
2023/04/27 08:52:03;;;;;;;;;;;8.20;94.20;;;;;;4901259;29;20007;-69
2023/04/27 08:54:29;;;;;;;;;;;8.30;94.60;;;;;;4917321;29;20352;-69
2023/04/27 08:56:55;;;;;;;;;;;8.10;93.90;;;;;;4944970;29;20022;-69
2023/04/27 08:59:21;;;;;;;;;;;8.10;94.70;;;;;;4933508;29;20030;-69
2023/04/27 09:01:47;;;;;;;;;;;8.10;93.10;;;;;;4917599;29;20005;-70
2023/04/27 09:04:13;;;;;;;;;;;8.00;90.30;;;;;;4942471;29;19977;-70
2023/04/27 09:06:38;;;;;;;;;;;8.00;88.20;;;;;;4939647;29;19915;-69
2023/04/27 09:09:06;;;;;;;;;;;7.90;88.10;;;;;;4928490;29;19914;-69
2023/04/27 09:11:32;;;;;;;;;;;8.20;87.20;;;;;;4917062;29;19957;-69
2023/04/27 09:13:57;;;;;;;;;;;8.30;84.90;;;;;;4937047;29;20255;-69
2023/04/27 09:16:23;;;;;;;;;;;8.40;87.30;;;;;;4932493;29;20331;-69
2023/04/27 09:18:49;;;;;;;;;;;8.40;89.70;;;;;;4915035;29;20075;-70
2023/04/27 09:21:22;;;;;;;;;;;8.50;90.20;;;;;;4942732;29;19950;-70
2023/04/27 09:23:48;;;;;;;;;;;8.50;90.30;;;;;;4935297;29;19919;-70
2023/04/27 09:26:18;;;;;;;;;;;8.50;91.10;;;;;;4936584;29;20391;-69
2023/04/27 09:28:49;;;;;;;;;;;8.50;90.70;;;;;;4937446;29;19946;-69
2023/04/27 09:31:14;;;;;;;;;;;8.40;90.20;;;;;;4949263;29;20354;-69
2023/04/27 09:33:40;;;;;;;;;;;8.50;90.00;;;;;;4933044;29;19914;-69
2023/04/27 09:36:06;;;;;;;;;;;8.60;90.40;;;;;;4920626;29;20098;-69
2023/04/27 09:38:31;;;;;;;;;;;8.60;87.90;;;;;;4920452;29;19966;-69
2023/04/27 09:40:57;;;;;;;;;;;8.60;87.70;;;;;;4925912;29;19924;-69
2023/04/27 09:43:23;;;;;;;;;;;8.80;89.20;;;;;;4937430;29;19918;-69
2023/04/27 09:45:49;;;;;;;;;;;9.00;89.10;;;;;;4937289;29;19918;-70
2023/04/27 09:48:15;;;;;;;;;;;9.30;87.30;;;;;;4945211;29;20001;-70
2023/04/27 09:50:42;;;;;;;;;;;9.40;87.90;;;;;;4934475;29;19956;-69
2023/04/27 09:53:09;;;;;;;;;;;9.30;82.70;;;;;;4954567;29;20049;-69
2023/04/27 09:55:49;;;;;;;;;;;9.10;81.30;;;;;;4931543;29;19969;-69
2023/04/27 09:58:45;;;;;;;;;;;9.00;82.30;;;;;;4911775;29;20280;-69
2023/04/27 10:01:16;;;;;;;;;;;9.00;81.30;;;;;;4863468;29;20009;-70
2023/04/27 10:03:48;;;;;;;;;;;9.20;82.40;;;;;;4916246;29;20248;-70
2023/04/27 10:06:13;;;;;;;;;;;9.20;82.60;;;;;;4916539;29;19915;-70
2023/04/27 10:08:39;;;;;;;;;;;9.30;84.10;;;;;;4916730;29;20351;-70
2023/04/27 10:11:21;;;;;;;;;;;9.40;83.70;;;;;;4919085;29;19922;-70
2023/04/27 10:13:53;;;;;;;;;;;9.40;82.90;;;;;;4898600;29;19919;-69
2023/04/27 10:16:20;;;;;;;;;;;9.20;82.10;;;;;;4910688;29;19915;-70
2023/04/27 10:18:55;;;;;;;;;;;8.90;83.30;;;;;;4917172;29;19914;-70
2023/04/27 10:21:20;;;;;;;;;;;9.00;84.50;;;;;;4913831;29;19911;-70
2023/04/27 10:23:47;;;;;;;;;;;9.00;82.70;;;;;;4914451;29;19958;-70
2023/04/27 10:26:15;;;;;;;;;;;9.10;82.90;;;;;;4915876;29;19914;-70
2023/04/27 10:28:41;;;;;;;;;;;9.20;80.40;;;;;;4924277;29;19919;-70
2023/04/27 10:31:10;;;;;;;;;;;9.40;78.60;;;;;;4916185;29;20313;-70
2023/04/27 10:33:41;;;;;;;;;;;9.50;75.50;;;;;;4911356;29;20240;-67
2023/04/27 10:36:07;;;;;;;;;;;9.80;74.60;;;;;;4917149;29;20272;-67
2023/04/27 10:38:32;;;;;;;;;;;10.10;75.00;;;;;;4925969;29;19923;-67
2023/04/27 10:41:02;;;;;;;;;;;10.00;72.60;;;;;;4915492;29;19915;-67
2023/04/27 10:43:28;;;;;;;;;;;10.20;73.90;;;;;;4915905;29;19957;-68
2023/04/27 10:45:54;;;;;;;;;;;10.40;74.00;;;;;;4916168;29;19925;-67
2023/04/27 10:48:20;;;;;;;;;;;10.50;71.20;;;;;;4915502;29;20387;-67
2023/04/27 10:50:45;;;;;;;;;;;10.10;72.40;;;;;;4912216;29;19919;-67
2023/04/27 10:53:11;;;;;;;;;;;9.90;73.60;;;;;;4914159;29;19914;-68
2023/04/27 10:55:37;;;;;;;;;;;9.90;74.20;;;;;;4925462;29;20370;-67
2023/04/27 10:58:03;;;;;;;;;;;9.70;72.50;;;;;;4949126;29;19926;-67
2023/04/27 11:00:33;;;;;;;;;;;9.70;74.70;;;;;;4928043;29;19915;-67
2023/04/27 11:03:15;;;;;;;;;;;9.90;75.50;;;;;;4950108;29;20037;-67
2023/04/27 11:05:41;;;;;;;;;;;10.50;76.70;;;;;;4941501;29;19986;-67
2023/04/27 11:08:17;;;;;;;;;;;11.00;76.20;;;;;;4934916;29;19919;-67
2023/04/27 11:10:45;;;;;;;;;;;11.20;69.90;;;;;;4933910;29;19989;-67
2023/04/27 11:13:11;;;;;;;;;;;11.60;73.00;;;;;;4934292;29;19949;-67
2023/04/27 11:15:50;;;;;;;;;;;11.70;68.20;;;;;;4950352;29;19919;-67
2023/04/27 11:18:16;;;;;;;;;;;11.60;68.10;;;;;;4935226;29;19918;-67
2023/04/27 11:20:42;;;;;;;;;;;11.10;68.80;;;;;;4933318;29;19950;-67
2023/04/27 11:23:10;;;;;;;;;;;10.80;68.00;;;;;;4950075;29;20016;-67
2023/04/27 11:25:36;;;;;;;;;;;10.80;68.50;;;;;;4933225;29;20468;-67
2023/04/27 11:28:01;;;;;;;;;;;10.80;69.50;;;;;;4950023;29;19914;-67
2023/04/27 11:30:27;;;;;;;;;;;10.80;70.80;;;;;;4930961;29;20228;-67
2023/04/27 11:32:52;;;;;;;;;;;11.20;70.80;;;;;;4949107;29;19915;-67
2023/04/27 11:35:18;;;;;;;;;;;11.60;68.30;;;;;;4949693;29;20025;-67
2023/04/27 11:37:44;;;;;;;;;;;11.70;68.80;;;;;;4949719;29;20320;-67
2023/04/27 11:40:12;;;;;;;;;;;11.90;66.00;;;;;;4933802;29;19921;-67
2023/04/27 11:42:42;;;;;;;;;;;12.00;64.70;;;;;;4948232;29;20287;-67
2023/04/27 11:45:09;;;;;;;;;;;11.90;61.30;;;;;;4949239;29;20340;-67
2023/04/27 11:47:35;;;;;;;;;;;11.80;61.50;;;;;;4948833;29;19914;-67
2023/04/27 11:50:03;;;;;;;;;;;11.80;62.00;;;;;;4933746;29;19973;-67
2023/04/27 11:52:32;;;;;;;;;;;11.80;64.80;;;;;;4932953;29;19956;-67
2023/04/27 11:54:58;;;;;;;;;;;12.00;67.30;;;;;;4931377;29;20419;-67
2023/04/27 11:57:25;;;;;;;;;;;11.70;62.10;;;;;;4915172;29;19993;-67
2023/04/27 11:59:51;;;;;;;;;;;11.70;64.10;;;;;;4914704;29;19915;-67
2023/04/27 12:02:17;;;;;;;;;;;11.80;64.40;;;;;;4909660;29;19919;-67
2023/04/27 12:04:42;;;;;;;;;;;11.80;66.00;;;;;;4909184;29;19975;-67
2023/04/27 12:07:08;;;;;;;;;;;11.80;63.20;;;;;;4912470;29;20002;-67
2023/04/27 12:09:34;;;;;;;;;;;11.60;63.10;;;;;;4930423;29;19918;-67
2023/04/27 12:11:59;;;;;;;;;;;11.60;64.20;;;;;;4931133;29;20214;-67
2023/04/27 12:14:25;;;;;;;;;;;11.90;65.40;;;;;;4911408;29;19978;-67
2023/04/27 12:16:51;;;;;;;;;;;12.30;63.90;;;;;;4906148;29;20479;-67
2023/04/27 12:19:16;;;;;;;;;;;12.00;64.50;;;;;;4896784;29;19919;-67
2023/04/27 12:21:42;;;;;;;;;;;12.20;61.60;;;;;;4910883;29;20610;-68
2023/04/27 12:24:08;;;;;;;;;;;12.10;62.70;;;;;;4911396;29;19923;-68
2023/04/27 12:26:34;;;;;;;;;;;12.40;62.20;;;;;;4899846;29;19926;-67
2023/04/27 12:29:01;;;;;;;;;;;12.40;61.20;;;;;;4911340;29;20396;-68
2023/04/27 12:31:27;;;;;;;;;;;12.90;61.70;;;;;;4916718;29;19918;-68
2023/04/27 12:33:53;;;;;;;;;;;13.40;62.60;;;;;;4902394;29;19911;-67
2023/04/27 12:36:18;;;;;;;;;;;13.40;60.20;;;;;;4925614;29;19919;-68
2023/04/27 12:38:44;;;;;;;;;;;12.90;60.20;;;;;;4915137;29;20260;-68
2023/04/27 12:41:10;;;;;;;;;;;12.80;61.00;;;;;;4917156;29;19918;-67
2023/04/27 12:43:36;;;;;;;;;;;13.30;61.70;;;;;;4930960;29;19911;-67
2023/04/27 12:46:02;;;;;;;;;;;13.70;59.40;;;;;;4918482;29;19954;-68
2023/04/27 12:48:27;;;;;;;;;;;14.00;58.30;;;;;;4917825;29;19962;-67
2023/04/27 12:50:53;;;;;;;;;;;14.00;56.40;;;;;;4913792;29;19958;-67
2023/04/27 12:53:20;;;;;;;;;;;13.40;57.10;;;;;;4906020;29;19942;-67
2023/04/27 12:55:46;;;;;;;;;;;13.50;57.70;;;;;;4925463;29;19919;-67
2023/04/27 12:58:12;;;;;;;;;;;13.80;59.20;;;;;;4949417;29;19925;-67
2023/04/27 13:00:37;;;;;;;;;;;14.00;57.50;;;;;;4949720;29;20209;-67
2023/04/27 13:03:03;;;;;;;;;;;14.00;55.90;;;;;;4933702;29;19914;-67
2023/04/27 13:05:29;;;;;;;;;;;14.20;54.80;;;;;;4933788;29;19914;-67
2023/04/27 13:07:55;;;;;;;;;;;13.70;54.50;;;;;;4948478;29;19918;-67
2023/04/27 13:10:20;;;;;;;;;;;13.50;55.00;;;;;;4932935;29;20372;-67
2023/04/27 13:12:46;;;;;;;;;;;13.90;56.70;;;;;;4933200;29;19922;-67
2023/04/27 13:15:14;;;;;;;;;;;13.70;56.50;;;;;;4931791;29;19929;-67
2023/04/27 13:17:40;;;;;;;;;;;13.50;56.50;;;;;;4955256;28;19914;-67
2023/04/27 13:20:07;;;;;;;;;;;13.60;54.70;;;;;;4955518;28;19925;-67
2023/04/27 13:22:33;;;;;;;;;;;14.00;54.50;;;;;;4951044;28;19918;-67
2023/04/27 13:24:58;;;;;;;;;;;13.90;53.20;;;;;;4938834;29;19926;-67
2023/04/27 13:27:27;;;;;;;;;;;13.80;53.80;;;;;;4951516;28;20213;-67
2023/04/27 13:29:52;;;;;;;;;;;14.00;53.50;;;;;;4932621;29;19974;-67
2023/04/27 13:32:18;;;;;;;;;;;14.40;52.90;;;;;;4937345;29;19958;-67
2023/04/27 13:34:44;;;;;;;;;;;14.70;51.30;;;;;;4937312;29;19914;-67
2023/04/27 13:37:09;;;;;;;;;;;14.90;52.30;;;;;;4942262;29;19945;-67
2023/04/27 13:39:36;;;;;;;;;;;15.20;54.10;;;;;;4937897;29;20366;-67
2023/04/27 13:42:02;;;;;;;;;;;15.20;53.70;;;;;;4933444;29;19966;-67
2023/04/27 13:44:27;;;;;;;;;;;15.60;55.30;;;;;;4933276;29;19958;-68
2023/04/27 13:46:53;;;;;;;;;;;15.80;51.10;;;;;;4956662;28;20298;-68
2023/04/27 13:49:19;;;;;;;;;;;15.80;50.80;;;;;;4940392;29;19921;-68
2023/04/27 13:51:44;;;;;;;;;;;15.90;50.90;;;;;;4957073;28;19962;-68
2023/04/27 13:54:10;;;;;;;;;;;16.20;51.80;;;;;;4940152;29;20251;-69
2023/04/27 13:56:36;;;;;;;;;;;16.20;49.80;;;;;;4948357;29;19923;-69
2023/04/27 13:59:02;;;;;;;;;;;16.00;49.40;;;;;;4950015;28;19953;-68
2023/04/27 14:01:28;;;;;;;;;;;16.10;49.60;;;;;;4932934;29;19926;-73
2023/04/27 14:03:54;;;;;;;;;;;16.30;49.30;;;;;;4933838;29;19910;-72
2023/04/27 14:06:20;;;;;;;;;;;16.50;50.80;;;;;;4939113;29;20053;-72
2023/04/27 14:08:46;;;;;;;;;;;16.90;51.50;;;;;;4957762;28;20001;-72
2023/04/27 14:11:12;;;;;;;;;;;17.30;51.30;;;;;;4936242;29;19914;-72
2023/04/27 14:13:37;;;;;;;;;;;17.70;52.40;;;;;;4944803;29;19915;-72
2023/04/27 14:16:03;;;;;;;;;;;17.80;51.20;;;;;;4941685;29;19961;-72
2023/04/27 14:18:29;;;;;;;;;;;17.70;55.20;;;;;;4952811;28;19958;-72
2023/04/27 14:20:54;;;;;;;;;;;17.70;51.30;;;;;;4953730;28;20240;-71